Time;durP1;ratioP1;P1;durP2;ratioP2;P2;SDS_P1;SDS_P2;PMS_P1;PMS_P2;Temp;Humidity;BMP_temperature;BMP_pressure;BME280_temperature;BME280_humidity;BME280_pressure;Samples;Min_cycle;Max_cycle;Signal;HPM_P1;HPM_P2
2021/08/31 00:02:12;;;;;;;3.28;1.90;;;;;;;12.23;92.95;95029.81;5106182;28;20040;-76
2021/08/31 00:04:39;;;;;;;2.20;1.45;;;;;;;12.16;92.81;95029.19;5111061;28;20118;-75
2021/08/31 00:07:05;;;;;;;2.75;1.80;;;;;;;12.20;92.57;95038.13;5112881;27;20024;-76
2021/08/31 00:09:32;;;;;;;3.42;1.83;;;;;;;12.11;92.91;95023.88;5106161;28;20043;-76
2021/08/31 00:11:59;;;;;;;1.98;1.65;;;;;;;12.05;93.04;95031.63;5108746;28;20038;-76
2021/08/31 00:14:26;;;;;;;2.38;1.70;;;;;;;12.08;93.06;95030.34;5113290;28;20043;-76
2021/08/31 00:16:53;;;;;;;4.15;1.77;;;;;;;12.09;92.86;95039.00;5117015;28;20028;-76
2021/08/31 00:19:20;;;;;;;2.80;1.85;;;;;;;11.99;93.30;95034.38;5115006;27;20031;-76
2021/08/31 00:21:47;;;;;;;4.75;1.92;;;;;;;12.07;94.55;95044.44;5107560;28;20505;-76
2021/08/31 00:24:14;;;;;;;2.28;1.52;;;;;;;11.96;94.94;95040.06;5103083;28;20051;-75
2021/08/31 00:26:41;;;;;;;4.15;1.92;;;;;;;11.94;94.67;95037.69;5104306;28;20052;-76
2021/08/31 00:29:08;;;;;;;3.47;2.45;;;;;;;11.89;94.01;95029.72;5110609;28;20396;-76
2021/08/31 00:31:35;;;;;;;4.15;1.55;;;;;;;11.90;95.17;95047.00;5112472;27;20035;-76
2021/08/31 00:34:02;;;;;;;2.78;1.45;;;;;;;11.79;95.02;95034.75;5108563;28;20054;-76
2021/08/31 00:36:29;;;;;;;3.03;1.67;;;;;;;11.83;94.74;95041.13;5108898;28;20488;-75
2021/08/31 00:38:57;;;;;;;1.75;1.20;;;;;;;11.74;94.73;95042.50;5103271;27;20044;-77
2021/08/31 00:41:25;;;;;;;2.03;1.10;;;;;;;11.69;95.19;95034.59;5092345;28;20047;-76
2021/08/31 00:43:52;;;;;;;2.15;1.30;;;;;;;11.50;99.90;95047.00;5089349;28;20043;-76
2021/08/31 00:46:22;;;;;;;2.78;1.90;;;;;;;11.00;100.00;95049.13;5097645;28;20028;-76
2021/08/31 00:48:52;;;;;;;3.80;2.40;;;;;;;11.05;100.00;95040.59;5093236;28;20039;-76
2021/08/31 00:51:23;;;;;;;3.08;2.05;;;;;;;11.17;100.00;95054.44;5098275;28;20036;-76
2021/08/31 00:53:51;;;;;;;2.80;1.88;;;;;;;11.32;100.00;95055.75;5087462;28;20513;-76
2021/08/31 00:56:19;;;;;;;2.95;1.35;;;;;;;11.36;100.00;95062.09;5094455;28;20485;-76
2021/08/31 00:58:46;;;;;;;3.13;1.77;;;;;;;11.37;100.00;95056.66;5096315;28;20043;-76
2021/08/31 01:01:13;;;;;;;2.63;1.40;;;;;;;11.31;100.00;95048.94;5098769;28;20044;-77
2021/08/31 01:03:44;;;;;;;3.47;1.60;;;;;;;11.33;100.00;95057.38;5091014;28;20042;-77
2021/08/31 01:06:11;;;;;;;3.35;1.83;;;;;;;11.38;99.54;95065.25;5088596;28;20043;-77
2021/08/31 01:08:38;;;;;;;2.90;1.63;;;;;;;11.39;98.63;95066.88;5088454;28;20513;-76
2021/08/31 01:11:05;;;;;;;3.20;1.63;;;;;;;11.35;98.19;95061.31;5097124;28;20444;-75
2021/08/31 01:13:34;;;;;;;1.80;1.27;;;;;;;11.27;97.64;95054.66;5095559;28;20047;-76
2021/08/31 01:16:02;;;;;;;3.40;1.77;;;;;;;11.24;97.75;95055.09;5102968;28;20036;-76
2021/08/31 01:18:29;;;;;;;3.38;1.63;;;;;;;11.27;98.32;95059.03;5099488;28;20058;-76
2021/08/31 01:20:58;;;;;;;2.78;1.73;;;;;;;11.25;98.23;95061.09;5097253;28;20039;-76
2021/08/31 01:23:26;;;;;;;1.58;1.23;;;;;;;11.19;97.91;95052.38;5099489;28;20686;-76
2021/08/31 01:25:54;;;;;;;3.15;2.00;;;;;;;11.18;97.88;95060.41;5092491;28;20051;-77
2021/08/31 01:28:27;;;;;;;3.22;1.60;;;;;;;11.19;97.64;95062.81;5097017;28;20039;-76
2021/08/31 01:30:55;;;;;;;3.88;1.63;;;;;;;11.21;97.72;95065.19;5090510;28;20032;-76
2021/08/31 01:33:26;;;;;;;3.75;1.95;;;;;;;11.16;98.05;95062.47;5085273;28;20047;-75
2021/08/31 01:35:54;;;;;;;3.85;2.00;;;;;;;11.07;97.90;95057.63;5100772;28;20044;-76
2021/08/31 01:38:21;;;;;;;1.83;1.33;;;;;;;11.09;97.32;95054.75;5099455;28;20451;-76
2021/08/31 01:40:49;;;;;;;1.73;1.08;;;;;;;11.11;97.68;95057.97;5093267;28;20036;-76
2021/08/31 01:43:26;;;;;;;3.28;2.33;;;;;;;11.13;97.53;95066.34;5095828;28;20058;-77
2021/08/31 01:45:54;;;;;;;2.35;1.70;;;;;;;11.10;97.79;95056.34;5107746;28;20104;-76
2021/08/31 01:48:21;;;;;;;3.38;2.03;;;;;;;11.06;97.42;95063.06;5102537;28;21917;-76
2021/08/31 01:50:48;;;;;;;3.70;2.05;;;;;;;11.10;97.03;95067.56;5091160;28;20058;-76
2021/08/31 01:53:15;;;;;;;4.05;2.22;;;;;;;11.09;97.12;95067.78;5099641;28;20051;-75
2021/08/31 01:55:42;;;;;;;2.00;1.45;;;;;;;11.07;97.06;95069.84;5091650;28;20054;-76
2021/08/31 01:58:08;;;;;;;3.40;2.13;;;;;;;11.04;97.34;95062.50;5092916;28;20040;-76
2021/08/31 02:00:36;;;;;;;2.03;1.15;;;;;;;11.02;97.39;95067.94;5094679;28;20047;-75
2021/08/31 02:03:04;;;;;;;3.13;1.60;;;;;;;11.03;97.23;95079.13;5095811;28;20047;-75
2021/08/31 02:05:31;;;;;;;2.78;1.83;;;;;;;10.92;97.21;95062.47;5095328;28;20051;-75
2021/08/31 02:07:58;;;;;;;2.20;1.58;;;;;;;10.90;97.32;95060.09;5089889;28;20039;-75
2021/08/31 02:10:25;;;;;;;3.70;2.25;;;;;;;10.86;97.38;95053.75;5088458;28;20569;-76
2021/08/31 02:12:52;;;;;;;4.80;2.33;;;;;;;10.89;97.98;95063.75;5077422;28;20045;-77
2021/08/31 02:15:19;;;;;;;2.85;1.48;;;;;;;10.87;98.11;95062.38;5097208;28;20437;-76
2021/08/31 02:17:46;;;;;;;2.08;1.55;;;;;;;10.84;98.37;95060.22;5094500;28;20055;-77
2021/08/31 02:20:13;;;;;;;1.73;1.13;;;;;;;10.86;98.11;95063.41;5097343;28;20051;-76
2021/08/31 02:22:40;;;;;;;1.83;1.33;;;;;;;10.86;98.02;95058.97;5094592;28;20074;-76
2021/08/31 02:25:08;;;;;;;3.33;2.00;;;;;;;10.83;97.87;95059.41;5095815;28;20048;-77
2021/08/31 02:27:35;;;;;;;3.10;2.15;;;;;;;10.87;97.96;95070.97;5089158;28;20152;-76
2021/08/31 02:30:04;;;;;;;3.47;2.00;;;;;;;10.86;97.98;95064.19;5096247;28;20113;-76
2021/08/31 02:32:31;;;;;;;2.88;2.05;;;;;;;10.74;98.04;95047.75;5095052;28;20048;-76
2021/08/31 02:34:58;;;;;;;2.88;2.28;;;;;;;10.76;98.01;95063.94;5097831;28;20100;-76
2021/08/31 02:37:25;;;;;;;2.95;1.95;;;;;;;10.78;97.48;95072.31;5093138;28;20467;-75
2021/08/31 02:39:51;;;;;;;3.35;1.63;;;;;;;10.68;97.74;95046.06;5096154;28;20040;-76
2021/08/31 02:42:19;;;;;;;11.07;2.38;;;;;;;10.79;98.73;95053.09;5095802;28;20085;-78
2021/08/31 02:44:46;;;;;;;5.40;2.97;;;;;;;10.84;100.00;95055.81;5093106;28;20048;-77
2021/08/31 02:47:17;;;;;;;4.32;2.67;;;;;;;10.96;100.00;95047.19;5096369;28;20032;-78
2021/08/31 02:49:45;;;;;;;7.90;3.72;;;;;;;11.14;98.66;95054.88;5102279;28;20051;-78
2021/08/31 02:52:12;;;;;;;5.53;4.47;;;;;;;11.11;97.60;95057.97;5095809;28;20044;-77
2021/08/31 02:54:40;;;;;;;6.13;3.58;;;;;;;11.01;98.03;95055.13;5100867;28;20031;-77
2021/08/31 02:57:08;;;;;;;15.50;9.85;;;;;;;10.99;98.71;95064.97;5095567;28;20036;-78
2021/08/31 02:59:35;;;;;;;18.95;11.57;;;;;;;11.03;99.34;95068.72;5099906;28;20043;-78
2021/08/31 03:02:05;;;;;;;12.48;8.18;;;;;;;10.98;100.00;95071.19;5089566;28;20507;-77
2021/08/31 03:04:43;;;;;;;15.43;9.95;;;;;;;11.03;100.00;95073.94;5090824;28;20047;-77
2021/08/31 03:07:13;;;;;;;13.05;7.90;;;;;;;11.07;100.00;95075.06;5092616;28;20035;-77
2021/08/31 03:09:41;;;;;;;15.40;7.75;;;;;;;11.03;100.00;95068.72;5097635;28;20050;-77
2021/08/31 03:12:08;;;;;;;8.57;6.32;;;;;;;11.03;100.00;95074.72;5095772;28;20041;-77
2021/08/31 03:14:36;;;;;;;7.63;4.65;;;;;;;11.06;100.00;95068.28;5096705;28;20050;-77
2021/08/31 03:17:03;;;;;;;5.72;4.18;;;;;;;11.00;99.56;95069.97;5097526;28;20052;-77
2021/08/31 03:19:30;;;;;;;7.40;4.47;;;;;;;11.13;99.74;95074.16;5092088;28;20043;-77
2021/08/31 03:21:59;;;;;;;8.25;4.20;;;;;;;11.23;99.00;95084.78;5095744;28;20039;-77
2021/08/31 03:24:27;;;;;;;7.35;4.80;;;;;;;11.27;97.67;95085.94;5094633;28;20043;-77
2021/08/31 03:26:54;;;;;;;4.97;3.63;;;;;;;11.25;96.50;95082.78;5091606;28;20049;-77
2021/08/31 03:29:21;;;;;;;4.80;2.47;;;;;;;11.27;95.49;95091.16;5084945;28;20051;-77
2021/08/31 03:31:48;;;;;;;10.68;2.47;;;;;;;11.26;94.84;95084.34;5093565;28;20048;-77
2021/08/31 03:34:15;;;;;;;5.32;2.42;;;;;;;11.33;94.30;95093.88;5090832;28;20040;-78
2021/08/31 03:36:44;;;;;;;3.08;1.77;;;;;;;11.36;93.93;95098.59;5094602;28;20098;-78
2021/08/31 03:39:12;;;;;;;3.67;1.83;;;;;;;11.37;93.42;95103.59;5094661;28;20044;-78
2021/08/31 03:41:39;;;;;;;5.40;3.13;;;;;;;11.31;93.00;95106.31;5094413;28;20416;-78
2021/08/31 03:44:05;;;;;;;5.93;2.95;;;;;;;11.21;93.36;95092.03;5098633;28;20557;-78
2021/08/31 03:46:32;;;;;;;6.03;2.38;;;;;;;11.22;93.20;95104.06;5097678;28;20515;-78
2021/08/31 03:49:00;;;;;;;2.13;1.52;;;;;;;11.15;93.57;95103.41;5095486;28;20074;-78
2021/08/31 03:51:27;;;;;;;2.85;1.80;;;;;;;11.15;92.66;95106.00;5096161;28;20519;-77
2021/08/31 03:53:54;;;;;;;5.22;2.35;;;;;;;11.08;92.62;95100.09;5093393;28;20040;-78
2021/08/31 03:56:21;;;;;;;2.78;1.88;;;;;;;11.10;92.24;95100.66;5091580;28;20059;-77
2021/08/31 03:58:48;;;;;;;3.15;2.17;;;;;;;11.19;92.76;95114.94;5090384;28;20413;-77
2021/08/31 04:01:15;;;;;;;4.55;2.42;;;;;;;11.16;92.72;95115.38;5093474;28;20596;-78
2021/08/31 04:03:42;;;;;;;5.22;2.75;;;;;;;11.06;93.06;95125.63;5091896;28;20048;-77
2021/08/31 04:06:09;;;;;;;4.50;2.50;;;;;;;11.13;92.81;95121.09;5092221;28;20040;-78
2021/08/31 04:08:36;;;;;;;2.65;2.05;;;;;;;11.15;92.37;95113.81;5092565;28;20032;-78
2021/08/31 04:11:02;;;;;;;4.28;2.08;;;;;;;11.17;92.97;95121.41;5098257;28;20058;-77
2021/08/31 04:13:30;;;;;;;4.70;2.40;;;;;;;11.16;92.60;95125.03;5094018;28;20489;-77
2021/08/31 04:15:57;;;;;;;3.00;2.22;;;;;;;11.11;93.55;95125.72;5099931;28;20046;-77
2021/08/31 04:18:24;;;;;;;5.35;2.50;;;;;;;11.05;94.14;95124.00;5100618;28;20036;-76
2021/08/31 04:20:50;;;;;;;6.47;2.65;;;;;;;11.02;94.29;95120.06;5104858;28;20558;-75
2021/08/31 04:23:17;;;;;;;3.58;2.55;;;;;;;10.99;94.79;95125.72;5107810;28;20044;-76
2021/08/31 04:25:44;;;;;;;2.72;1.85;;;;;;;11.02;95.21;95124.47;5096836;28;20051;-75
2021/08/31 04:28:11;;;;;;;5.28;2.35;;;;;;;11.01;95.98;95130.69;5092172;28;20028;-77
2021/08/31 04:30:38;;;;;;;3.70;3.17;;;;;;;10.98;96.39;95118.13;5103244;28;20058;-77
2021/08/31 04:33:05;;;;;;;4.95;2.78;;;;;;;11.07;96.35;95135.00;5106024;28;20040;-77
2021/08/31 04:35:32;;;;;;;4.50;2.80;;;;;;;11.08;96.75;95124.34;5102568;28;20044;-76
2021/08/31 04:37:59;;;;;;;3.55;2.60;;;;;;;11.18;96.64;95139.44;5104140;27;20515;-75
2021/08/31 04:40:26;;;;;;;6.38;2.22;;;;;;;11.26;97.12;95141.69;5098617;28;20052;-76
2021/08/31 04:42:53;;;;;;;5.00;2.72;;;;;;;11.38;96.75;95130.47;5100539;28;20039;-76
2021/08/31 04:45:20;;;;;;;4.55;3.45;;;;;;;11.46;97.36;95135.34;5089205;28;20044;-76
2021/08/31 04:47:47;;;;;;;4.53;2.65;;;;;;;11.61;96.77;95135.69;5093156;28;20052;-76
2021/08/31 04:50:13;;;;;;;4.55;2.50;;;;;;;11.65;95.13;95133.41;5094344;28;20036;-76
2021/08/31 04:52:40;;;;;;;4.80;3.25;;;;;;;11.69;95.10;95128.50;5098270;28;20036;-76
2021/08/31 04:55:08;;;;;;;3.72;2.25;;;;;;;11.73;95.70;95135.63;5101801;28;20040;-79
2021/08/31 04:57:34;;;;;;;4.63;2.63;;;;;;;11.82;96.47;95130.84;5094795;28;20055;-76
2021/08/31 05:00:01;;;;;;;5.25;2.38;;;;;;;11.96;97.31;95142.66;5100689;28;20048;-76
2021/08/31 05:02:30;;;;;;;4.60;1.77;;;;;;;12.05;97.50;95130.81;5099036;28;20066;-75
2021/08/31 05:04:57;;;;;;;6.07;2.83;;;;;;;12.22;97.88;95137.91;5101198;28;20071;-76
2021/08/31 05:07:24;;;;;;;3.33;2.03;;;;;;;12.26;97.76;95131.19;5096896;28;20050;-77
2021/08/31 05:09:51;;;;;;;4.78;2.80;;;;;;;12.29;98.43;95138.56;5091882;28;20048;-77
2021/08/31 05:12:18;;;;;;;4.50;2.85;;;;;;;12.31;99.06;95131.28;5097312;28;20455;-76
2021/08/31 05:14:44;;;;;;;3.03;2.10;;;;;;;12.31;99.48;95141.72;5095892;28;20040;-76
2021/08/31 05:17:12;;;;;;;5.15;3.08;;;;;;;12.33;99.85;95139.66;5103893;28;20493;-76
2021/08/31 05:19:42;;;;;;;6.05;3.35;;;;;;;12.21;99.62;95115.44;5095218;28;20048;-77
2021/08/31 05:22:10;;;;;;;9.35;3.53;;;;;;;12.37;100.00;95130.34;5098037;28;20043;-76
2021/08/31 05:24:38;;;;;;;4.55;2.75;;;;;;;12.42;100.00;95127.84;5092244;28;20044;-76
2021/08/31 05:27:06;;;;;;;6.75;3.00;;;;;;;12.37;100.00;95108.66;5101532;28;20048;-76
2021/08/31 05:29:33;;;;;;;4.75;3.00;;;;;;;12.48;100.00;95120.06;5094127;28;20068;-77
2021/08/31 05:32:01;;;;;;;8.23;3.22;;;;;;;12.53;100.00;95118.34;5100610;27;21826;-77
2021/08/31 05:34:28;;;;;;;4.97;2.80;;;;;;;12.57;100.00;95113.47;5091459;28;20602;-77
2021/08/31 05:36:58;;;;;;;5.70;2.45;;;;;;;12.71;100.00;95113.91;5095478;28;20032;-77
2021/08/31 05:39:32;;;;;;;3.83;2.42;;;;;;;12.79;100.00;95116.94;5102599;28;20032;-77
2021/08/31 05:42:00;;;;;;;;;;;;;;;12.81;100.00;95112.25;5102523;28;20492;-77
2021/08/31 05:44:27;;;;;;;3.55;2.17;;;;;;;13.00;100.00;95112.03;5101717;28;19931;-76
2021/08/31 05:46:53;;;;;;;4.20;2.35;;;;;;;13.09;99.89;95115.84;5095389;28;20043;-77
2021/08/31 05:49:20;;;;;;;6.43;3.17;;;;;;;13.11;98.74;95113.00;5093029;28;20044;-76
2021/08/31 05:51:47;;;;;;;4.95;2.42;;;;;;;13.19;99.82;95109.94;5095151;28;20089;-76
2021/08/31 05:54:14;;;;;;;3.65;2.25;;;;;;;13.32;99.79;95111.47;5093840;28;20467;-76
2021/08/31 05:56:41;;;;;;;3.83;2.40;;;;;;;13.31;98.39;95096.81;5093243;28;20512;-76
2021/08/31 05:59:08;;;;;;;4.82;2.38;;;;;;;13.40;98.35;95105.81;5095173;28;20047;-77
2021/08/31 06:01:36;;;;;;;5.55;3.35;;;;;;;13.36;98.32;95099.47;5094659;28;20477;-76
2021/08/31 06:04:03;;;;;;;4.68;2.80;;;;;;;13.53;97.57;95121.16;5092271;28;20122;-76
2021/08/31 06:06:30;;;;;;;5.65;3.63;;;;;;;13.51;97.88;95118.00;5092710;28;20406;-76
2021/08/31 06:08:56;;;;;;;3.80;2.50;;;;;;;13.57;95.56;95122.25;5097789;28;20525;-76
2021/08/31 06:11:23;;;;;;;4.80;2.50;;;;;;;13.65;97.06;95122.88;5099610;28;20047;-76
2021/08/31 06:13:50;;;;;;;6.13;3.53;;;;;;;13.63;98.64;95124.94;5099408;28;20394;-76
2021/08/31 06:16:17;;;;;;;5.47;3.00;;;;;;;13.69;99.68;95129.22;5092485;28;20083;-76
2021/08/31 06:18:44;;;;;;;3.88;2.42;;;;;;;13.78;98.60;95133.00;5092606;28;20043;-77
2021/08/31 06:21:11;;;;;;;4.45;3.00;;;;;;;13.78;97.52;95127.78;5099533;28;20047;-76
2021/08/31 06:23:37;;;;;;;6.18;2.22;;;;;;;13.76;97.53;95132.47;5096291;28;20055;-76
2021/08/31 06:26:04;;;;;;;3.70;2.03;;;;;;;13.85;97.71;95131.00;5097470;28;20043;-76
2021/08/31 06:28:32;;;;;;;3.40;2.25;;;;;;;13.99;97.92;95128.00;5091042;28;20573;-77
2021/08/31 06:30:59;;;;;;;4.68;3.30;;;;;;;14.05;97.34;95129.66;5093368;28;20043;-76
2021/08/31 06:33:26;;;;;;;6.25;3.28;;;;;;;14.13;96.21;95123.97;5095149;28;20040;-76
2021/08/31 06:35:53;;;;;;;8.20;3.38;;;;;;;14.16;95.12;95133.97;5091954;28;20044;-76
2021/08/31 06:38:20;;;;;;;5.43;2.78;;;;;;;14.22;94.66;95122.50;5093477;28;20032;-75
2021/08/31 06:40:46;;;;;;;4.25;2.15;;;;;;;14.43;95.02;95127.94;5097569;28;20044;-76
2021/08/31 06:43:13;;;;;;;5.40;2.50;;;;;;;14.56;92.91;95122.28;5098218;28;20044;-77
2021/08/31 06:45:40;;;;;;;5.07;2.05;;;;;;;14.66;92.12;95117.19;5096632;28;20048;-75
2021/08/31 06:48:07;;;;;;;5.03;2.70;;;;;;;14.82;91.84;95125.16;5088184;28;20036;-75
2021/08/31 06:50:34;;;;;;;4.47;2.95;;;;;;;14.90;90.65;95116.84;5086036;28;20036;-76
2021/08/31 06:53:01;;;;;;;5.68;3.15;;;;;;;15.13;89.92;95120.16;5090489;28;20047;-75
2021/08/31 06:55:28;;;;;;;5.25;2.40;;;;;;;15.10;90.66;95103.88;5097791;28;20044;-76
2021/08/31 06:57:55;;;;;;;3.88;2.70;;;;;;;15.34;91.02;95127.13;5083836;28;20047;-75
2021/08/31 07:00:22;;;;;;;3.05;2.08;;;;;;;15.52;90.29;95127.75;5095404;28;20063;-75
2021/08/31 07:02:49;;;;;;;3.65;1.98;;;;;;;15.63;86.86;95118.91;5083653;28;20063;-75
2021/08/31 07:05:16;;;;;;;4.72;3.08;;;;;;;15.78;86.72;95124.22;5085139;28;20040;-76
2021/08/31 07:07:43;;;;;;;3.15;2.85;;;;;;;15.92;83.97;95126.38;5090265;28;20047;-75
2021/08/31 07:10:10;;;;;;;4.35;2.72;;;;;;;15.98;82.33;95125.38;5085065;28;20036;-76
2021/08/31 07:12:37;;;;;;;4.00;2.10;;;;;;;16.15;79.01;95131.22;5089220;28;20055;-75
2021/08/31 07:15:05;;;;;;;4.13;2.38;;;;;;;16.10;79.22;95120.69;5087518;28;20070;-76
2021/08/31 07:17:31;;;;;;;3.10;1.92;;;;;;;16.31;78.48;95128.59;5085346;28;20040;-76
2021/08/31 07:19:58;;;;;;;3.70;2.15;;;;;;;16.46;78.57;95136.53;5089636;28;20043;-76
2021/08/31 07:22:25;;;;;;;3.13;2.25;;;;;;;16.53;79.32;95129.19;5087401;28;20040;-75
2021/08/31 07:24:52;;;;;;;3.28;2.20;;;;;;;16.78;75.73;95138.13;5091142;28;20047;-77
2021/08/31 07:27:19;;;;;;;4.60;2.08;;;;;;;16.92;78.13;95133.19;5095604;28;20056;-75
2021/08/31 07:29:45;;;;;;;2.85;2.03;;;;;;;16.97;76.04;95136.59;5079845;28;20790;-76
2021/08/31 07:32:13;;;;;;;3.15;2.13;;;;;;;16.93;72.96;95132.94;5085948;28;20089;-76
2021/08/31 07:34:39;;;;;;;5.10;2.20;;;;;;;16.93;73.57;95140.03;5079656;28;20417;-76
2021/08/31 07:37:07;;;;;;;4.55;2.00;;;;;;;17.04;74.58;95135.56;5086720;28;20064;-75
2021/08/31 07:39:34;;;;;;;4.07;2.22;;;;;;;17.25;73.02;95131.88;5093552;28;20032;-76
2021/08/31 07:42:01;;;;;;;3.33;2.08;;;;;;;17.30;72.53;95138.94;5088333;27;20055;-76
2021/08/31 07:44:28;;;;;;;3.35;1.88;;;;;;;17.48;73.89;95141.03;5085091;28;20051;-76
2021/08/31 07:46:56;;;;;;;3.50;1.83;;;;;;;17.55;71.71;95119.69;5091095;28;20062;-77
2021/08/31 07:49:23;;;;;;;12.52;2.55;;;;;;;17.76;70.91;95137.00;5097324;28;20055;-77
2021/08/31 07:51:50;;;;;;;3.80;2.05;;;;;;;17.89;71.63;95129.63;5103488;27;20547;-76
2021/08/31 07:54:17;;;;;;;3.85;1.95;;;;;;;18.02;70.64;95134.31;5100298;28;20062;-76
2021/08/31 07:56:44;;;;;;;2.88;2.22;;;;;;;18.14;67.92;95132.16;5101763;28;20039;-80
2021/08/31 07:59:11;;;;;;;3.47;2.45;;;;;;;18.23;68.14;95136.88;5092853;28;20028;-75
2021/08/31 08:01:38;;;;;;;3.05;2.00;;;;;;;18.39;69.54;95133.09;5091828;28;20050;-76
2021/08/31 08:04:06;;;;;;;4.90;2.05;;;;;;;18.61;69.63;95116.06;5089120;28;20059;-76
2021/08/31 08:06:33;;;;;;;2.30;1.48;;;;;;;18.90;66.90;95131.97;5092677;28;20101;-80
2021/08/31 08:09:00;;;;;;;3.33;2.40;;;;;;;18.89;67.17;95122.50;5092067;28;20076;-77
2021/08/31 08:11:27;;;;;;;3.30;1.67;;;;;;;18.95;66.63;95128.53;5095889;28;20405;-76
2021/08/31 08:13:54;;;;;;;3.13;2.38;;;;;;;19.07;66.35;95126.31;5098744;27;20099;-76
2021/08/31 08:16:21;;;;;;;4.03;2.50;;;;;;;19.19;66.07;95126.72;5098071;28;20036;-76
2021/08/31 08:18:48;;;;;;;3.25;1.95;;;;;;;19.26;65.91;95119.25;5100378;27;20544;-76
2021/08/31 08:21:15;;;;;;;5.22;1.95;;;;;;;19.41;66.04;95114.91;5096014;28;20059;-76
2021/08/31 08:23:42;;;;;;;3.13;1.80;;;;;;;19.52;64.48;95111.09;5086086;28;20048;-77
2021/08/31 08:26:09;;;;;;;3.67;2.15;;;;;;;19.60;64.93;95112.34;5097101;28;20039;-78
2021/08/31 08:28:37;;;;;;;4.35;2.47;;;;;;;19.92;68.82;95114.38;5089638;28;20067;-76
2021/08/31 08:31:05;;;;;;;3.38;2.13;;;;;;;20.10;63.40;95109.41;5087897;28;20043;-77
2021/08/31 08:33:33;;;;;;;3.95;2.45;;;;;;;20.29;63.19;95112.84;5094437;27;20521;-77
2021/08/31 08:36:02;;;;;;;3.47;2.20;;;;;;;20.50;61.46;95112.56;5100624;28;20158;-77
2021/08/31 08:38:29;;;;;;;3.08;1.98;;;;;;;20.84;63.47;95111.59;5094103;28;20034;-77
2021/08/31 08:40:58;;;;;;;2.33;1.83;;;;;;;21.10;59.08;95110.06;5101506;28;20390;-77
2021/08/31 08:43:25;;;;;;;3.67;2.33;;;;;;;21.20;57.88;95099.31;5095840;28;20420;-77
2021/08/31 08:45:52;;;;;;;3.13;2.15;;;;;;;21.38;56.69;95104.84;5094225;28;20475;-77
2021/08/31 08:48:21;;;;;;;2.85;1.70;;;;;;;21.64;56.17;95101.75;5096883;28;20035;-77
2021/08/31 08:50:51;;;;;;;3.22;1.70;;;;;;;21.89;57.24;95103.91;5093731;28;20131;-77
2021/08/31 08:53:18;;;;;;;2.97;1.85;;;;;;;22.10;54.21;95098.19;5090508;28;20406;-77
2021/08/31 08:55:45;;;;;;;2.75;1.85;;;;;;;22.21;52.95;95099.53;5093609;28;20039;-77
2021/08/31 08:58:12;;;;;;;2.75;1.90;;;;;;;22.28;53.84;95093.88;5095531;28;20063;-77
2021/08/31 09:01:00;;;;;;;3.03;1.90;;;;;;;22.46;52.00;95089.50;5094628;28;20039;-77
2021/08/31 09:03:29;;;;;;;2.67;1.60;;;;;;;22.55;53.09;95093.00;5093928;28;20416;-74
2021/08/31 09:06:08;;;;;;;2.83;1.80;;;;;;;22.76;51.73;95092.53;5100627;28;20054;-77
2021/08/31 09:08:37;;;;;;;4.10;2.47;;;;;;;22.91;53.29;95078.88;5096864;28;20496;-78
2021/08/31 09:11:20;;;;;;;2.53;1.92;;;;;;;22.86;49.52;95082.44;5095816;28;20523;-77
2021/08/31 09:13:49;;;;;;;3.92;2.65;;;;;;;23.20;48.37;95077.69;5094785;28;20040;-78
2021/08/31 09:16:30;;;;;;;2.58;1.58;;;;;;;23.60;50.46;95072.38;5093554;28;20051;-77
2021/08/31 09:18:57;;;;;;;2.88;1.90;;;;;;;24.06;48.58;95071.13;5091286;28;20059;-78
2021/08/31 09:21:27;;;;;;;3.10;1.40;;;;;;;24.50;46.73;95063.94;5099506;28;20050;-75
2021/08/31 09:23:57;;;;;;;3.60;1.60;;;;;;;24.69;47.25;95068.22;5097426;28;20126;-75
2021/08/31 09:26:43;;;;;;;2.42;1.67;;;;;;;24.81;46.54;95065.66;5096398;28;20052;-76
2021/08/31 09:29:23;;;;;;;2.53;1.60;;;;;;;25.11;45.27;95060.44;5095316;28;20032;-76
2021/08/31 09:31:55;;;;;;;2.53;1.40;;;;;;;25.44;42.26;95065.22;5098406;27;20124;-75
2021/08/31 09:34:37;;;;;;;2.33;1.13;;;;;;;25.73;42.59;95062.59;5107108;28;20046;-76
2021/08/31 09:37:31;;;;;;;2.00;1.30;;;;;;;25.96;41.85;95070.31;5101280;28;20419;-76
2021/08/31 09:40:04;;;;;;;2.30;1.52;;;;;;;26.27;39.82;95053.16;5090755;28;20413;-76
2021/08/31 09:42:31;;;;;;;1.67;1.17;;;;;;;26.56;36.30;95043.53;5096620;27;20068;-76
2021/08/31 09:45:06;;;;;;;1.98;1.30;;;;;;;26.77;34.70;95054.97;5093814;28;20047;-75
2021/08/31 09:47:37;;;;;;;1.63;1.10;;;;;;;26.96;35.39;95056.41;5090396;27;20063;-76
2021/08/31 09:50:04;;;;;;;2.92;1.38;;;;;;;27.29;35.24;95044.91;5094081;28;20492;-76
2021/08/31 09:52:31;;;;;;;1.33;1.00;;;;;;;27.68;32.48;95048.81;5090407;28;20051;-77
2021/08/31 09:54:58;;;;;;;1.23;1.00;;;;;;;27.78;31.51;95039.56;5094986;28;20043;-76
2021/08/31 09:57:28;;;;;;;1.52;0.95;;;;;;;27.80;33.83;95046.16;5090845;27;20044;-76
2021/08/31 09:59:56;;;;;;;1.83;1.08;;;;;;;28.01;32.33;95046.03;5097756;28;20040;-75
2021/08/31 10:02:24;;;;;;;2.30;1.73;;;;;;;27.56;32.76;95032.78;5096169;27;20081;-75
2021/08/31 10:04:54;;;;;;;1.85;1.33;;;;;;;27.69;33.04;95039.66;5094692;28;20071;-75
2021/08/31 10:07:23;;;;;;;1.58;1.30;;;;;;;28.03;31.86;95038.44;5093862;27;20485;-76
2021/08/31 10:09:51;;;;;;;2.17;1.10;;;;;;;27.74;31.81;95030.66;5092987;28;20414;-76
2021/08/31 10:12:21;;;;;;;2.13;1.00;;;;;;;28.07;30.94;95021.72;5093099;28;20397;-78
2021/08/31 10:14:54;;;;;;;1.90;1.25;;;;;;;28.42;31.00;95027.31;5093061;27;20060;-77
2021/08/31 10:17:26;;;;;;;1.23;0.95;;;;;;;28.78;31.00;95031.75;5100508;28;20062;-75
2021/08/31 10:19:57;;;;;;;1.67;1.15;;;;;;;29.02;29.85;95032.75;5092521;27;20055;-77
2021/08/31 10:22:24;;;;;;;1.13;0.82;;;;;;;29.10;30.26;95023.78;5096089;28;20044;-75
2021/08/31 10:24:51;;;;;;;1.90;0.95;;;;;;;28.97;30.03;95015.03;5096491;28;20051;-76
2021/08/31 10:27:38;;;;;;;1.88;1.25;;;;;;;29.04;31.37;95019.00;5094569;28;20040;-75
2021/08/31 10:30:14;;;;;;;1.50;0.90;;;;;;;29.25;29.17;95018.78;5088587;27;20497;-76
2021/08/31 10:32:43;;;;;;;1.27;0.80;;;;;;;29.57;28.43;95011.50;5096082;28;20535;-75
2021/08/31 10:35:36;;;;;;;1.15;0.95;;;;;;;29.59;28.73;95016.53;5096980;27;20056;-75
2021/08/31 10:38:05;;;;;;;2.08;1.48;;;;;;;29.74;28.05;95013.03;5091506;28;20424;-75
2021/08/31 10:40:33;;;;;;;1.90;1.15;;;;;;;29.69;28.87;95007.94;5090460;28;20052;-75
2021/08/31 10:43:02;;;;;;;2.03;1.13;;;;;;;29.97;28.86;94994.38;5083616;28;20054;-74
2021/08/31 10:45:29;;;;;;;2.38;1.30;;;;;;;29.55;31.75;95005.72;5094559;27;20067;-75
2021/08/31 10:47:58;;;;;;;1.40;1.15;;;;;;;30.06;27.60;94999.56;5095288;28;20040;-74
2021/08/31 10:50:27;;;;;;;1.88;1.02;;;;;;;30.10;28.44;95008.47;5097092;27;20059;-75
2021/08/31 10:53:06;;;;;;;1.77;1.42;;;;;;;29.97;28.37;95004.38;5092284;28;20063;-74
2021/08/31 10:55:36;;;;;;;2.25;1.33;;;;;;;30.39;28.82;94995.63;5088506;28;20036;-75
2021/08/31 10:58:08;;;;;;;2.47;1.58;;;;;;;30.60;28.92;94997.97;5090060;28;20036;-74
2021/08/31 11:00:41;;;;;;;1.25;0.90;;;;;;;30.57;29.29;94994.06;5098297;28;20035;-74
2021/08/31 11:03:08;;;;;;;1.50;0.90;;;;;;;30.60;28.53;94993.38;5090027;28;20265;-74
2021/08/31 11:05:35;;;;;;;1.55;0.80;;;;;;;30.96;26.76;94994.03;5091867;28;20066;-73
2021/08/31 11:08:02;;;;;;;1.48;0.90;;;;;;;31.42;27.42;94994.03;5090242;28;20051;-74
2021/08/31 11:10:43;;;;;;;3.20;1.00;;;;;;;31.05;26.18;95002.66;5083389;28;20561;-74
2021/08/31 11:13:16;;;;;;;3.35;1.38;;;;;;;31.06;26.45;94993.44;5096054;28;20044;-73
2021/08/31 11:15:47;;;;;;;1.42;1.02;;;;;;;30.73;27.30;94990.53;5085893;28;20040;-73
2021/08/31 11:18:16;;;;;;;1.48;1.00;;;;;;;31.18;25.67;94994.41;5085542;28;20054;-74
2021/08/31 11:20:45;;;;;;;1.00;0.80;;;;;;;30.33;28.46;94988.97;5089650;28;20044;-74
2021/08/31 11:23:20;;;;;;;1.33;0.88;;;;;;;30.96;27.42;94985.19;5086653;28;20402;-74
2021/08/31 11:25:55;;;;;;;1.20;0.90;;;;;;;31.62;26.55;94986.66;5086414;28;20048;-74
2021/08/31 11:28:25;;;;;;;1.05;0.88;;;;;;;31.61;25.96;94981.63;5089102;28;20044;-74
2021/08/31 11:31:12;;;;;;;1.65;0.90;;;;;;;31.71;24.78;94983.72;5084991;28;20089;-74
2021/08/31 11:33:44;;;;;;;1.88;1.42;;;;;;;32.19;23.85;94992.06;5084893;28;20511;-74
2021/08/31 11:36:16;;;;;;;2.10;0.88;;;;;;;32.34;25.75;94989.53;5084825;28;20434;-74
2021/08/31 11:38:50;;;;;;;3.45;1.33;;;;;;;32.25;26.76;94981.75;5081748;28;20040;-74